Time;durP1;ratioP1;P1;durP2;ratioP2;P2;SDS_P1;SDS_P2;PMS_P1;PMS_P2;Temp;Humidity;BMP_temperature;BMP_pressure;BME280_temperature;BME280_humidity;BME280_pressure;Samples;Min_cycle;Max_cycle;Signal;HPM_P1;HPM_P2
2021/04/13 00:01:23;;;;;;;3.20;2.80;;;3.90;99.90;;;;;;5041745;28;20210;-81
2021/04/13 00:03:55;;;;;;;3.08;2.45;;;3.80;99.90;;;;;;5040851;28;20215;-80
2021/04/13 00:06:25;;;;;;;2.85;2.60;;;3.70;99.90;;;;;;5040156;28;20646;-81
2021/04/13 00:09:00;;;;;;;3.10;2.80;;;3.70;99.90;;;;;;5041633;28;20214;-79
2021/04/13 00:11:26;;;;;;;3.67;3.25;;;3.70;99.90;;;;;;5049291;28;20191;-78
2021/04/13 00:13:55;;;;;;;4.38;3.00;;;3.70;99.90;;;;;;5049393;28;20694;-79
2021/04/13 00:16:24;;;;;;;4.93;2.92;;;3.70;99.90;;;;;;5068110;22;20222;-85
2021/04/13 00:18:52;;;;;;;3.95;3.55;;;3.70;99.90;;;;;;5070387;28;20223;-85
2021/04/13 00:21:22;;;;;;;3.10;2.90;;;3.70;99.90;;;;;;5070755;28;20198;-85
2021/04/13 00:23:50;;;;;;;4.50;3.33;;;3.60;99.90;;;;;;5062430;28;20207;-85
2021/04/13 00:26:22;;;;;;;5.70;4.00;;;3.60;99.90;;;;;;5060209;28;20230;-85
2021/04/13 00:28:50;;;;;;;3.03;2.78;;;3.70;99.90;;;;;;5059378;28;20219;-85
2021/04/13 00:31:38;;;;;;;3.67;3.20;;;3.60;99.90;;;;;;5058585;28;20217;-85
2021/04/13 00:34:06;;;;;;;2.65;2.53;;;3.60;99.90;;;;;;5066703;28;20291;-85
2021/04/13 00:36:33;;;;;;;5.00;2.92;;;3.50;99.90;;;;;;5059777;28;20229;-85
2021/04/13 00:38:59;;;;;;;3.83;3.08;;;3.50;99.90;;;;;;5062193;28;20203;-86
2021/04/13 00:41:28;;;;;;;3.53;3.33;;;3.50;99.90;;;;;;5058799;28;20207;-85
2021/04/13 00:43:59;;;;;;;4.13;3.83;;;3.50;99.90;;;;;;5058965;28;20210;-86
2021/04/13 00:46:31;;;;;;;3.50;3.15;;;3.50;99.90;;;;;;5058230;28;20232;-85
2021/04/13 00:49:00;;;;;;;4.90;3.20;;;3.40;99.90;;;;;;5058801;28;20187;-86
2021/04/13 00:51:31;;;;;;;4.28;3.85;;;3.40;99.90;;;;;;5057841;28;20619;-86
2021/04/13 00:54:00;;;;;;;3.47;3.17;;;3.40;99.90;;;;;;5058253;28;20183;-86
2021/04/13 00:56:28;;;;;;;3.70;3.40;;;3.40;99.90;;;;;;5057833;28;20602;-86
2021/04/13 00:59:02;;;;;;;3.00;2.80;;;3.40;99.90;;;;;;5057419;28;20231;-86
2021/04/13 01:01:33;;;;;;;4.90;3.15;;;3.30;99.90;;;;;;5057955;28;20660;-86
2021/04/13 01:04:03;;;;;;;5.32;3.45;;;3.40;99.90;;;;;;5058043;28;20597;-86
2021/04/13 01:06:33;;;;;;;5.45;3.42;;;3.30;99.90;;;;;;5057180;28;20782;-86
2021/04/13 01:09:04;;;;;;;3.33;3.08;;;3.30;99.90;;;;;;5063728;28;20681;-86
2021/04/13 01:11:34;;;;;;;3.90;3.47;;;3.30;99.90;;;;;;5057891;28;20210;-86
2021/04/13 01:14:02;;;;;;;3.42;3.10;;;3.30;99.90;;;;;;5057324;28;20677;-86
2021/04/13 01:16:32;;;;;;;3.47;2.85;;;3.30;99.90;;;;;;5058312;28;20285;-86
2021/04/13 01:19:03;;;;;;;3.35;3.05;;;3.20;99.90;;;;;;5058788;28;20175;-86
2021/04/13 01:21:38;;;;;;;4.15;3.42;;;3.20;99.90;;;;;;5067288;28;20191;-85
2021/04/13 01:24:10;;;;;;;4.70;3.60;;;3.30;99.90;;;;;;5062689;28;20554;-85
2021/04/13 01:26:42;;;;;;;4.78;4.00;;;3.20;99.90;;;;;;5056841;28;20231;-85
2021/04/13 01:29:09;;;;;;;5.43;3.45;;;3.20;99.90;;;;;;5057554;28;20187;-85
2021/04/13 01:31:44;;;;;;;3.20;3.00;;;3.20;99.90;;;;;;5057557;28;20270;-86
2021/04/13 01:34:22;;;;;;;4.90;3.42;;;5.90;99.90;;;;;;5056846;28;20183;-85
2021/04/13 01:37:09;;;;;;;3.55;3.25;;;3.20;99.90;;;;;;5057267;28;20268;-86
2021/04/13 01:39:45;;;;;;;3.95;3.65;;;3.20;99.90;;;;;;5057046;28;20695;-86
2021/04/13 01:42:13;;;;;;;3.22;2.92;;;3.20;99.90;;;;;;5059358;28;20183;-86
2021/04/13 01:44:42;;;;;;;3.42;3.22;;;3.30;99.90;;;;;;5056995;28;20211;-86
2021/04/13 01:47:11;;;;;;;4.40;4.00;;;3.20;99.90;;;;;;5058289;28;20214;-86
2021/04/13 01:49:46;;;;;;;4.82;3.65;;;3.20;99.90;;;;;;5057473;28;20206;-86
2021/04/13 01:52:21;;;;;;;5.30;3.67;;;3.20;99.90;;;;;;5062815;28;20194;-86
2021/04/13 01:54:48;;;;;;;4.18;3.90;;;3.20;99.90;;;;;;5057865;28;20190;-86
2021/04/13 01:57:21;;;;;;;4.15;3.70;;;3.20;99.90;;;;;;5063726;28;20238;-86
2021/04/13 01:59:52;;;;;;;5.95;3.95;;;3.10;99.90;;;;;;5056820;28;20188;-86
2021/04/13 02:02:24;;;;;;;4.30;3.90;;;3.10;99.90;;;;;;5056595;28;20187;-86
2021/04/13 02:04:54;;;;;;;4.28;3.88;;;3.10;99.90;;;;;;5057229;28;20199;-86
2021/04/13 02:07:35;;;;;;;4.18;3.85;;;3.00;99.90;;;;;;5055715;28;20225;-86
2021/04/13 02:10:10;;;;;;;4.20;3.90;;;3.00;99.90;;;;;;5056070;28;20215;-86
2021/04/13 02:12:38;;;;;;;4.72;4.32;;;3.10;99.90;;;;;;5056220;28;20198;-86
2021/04/13 02:15:11;;;;;;;5.80;5.18;;;2.90;99.90;;;;;;5055775;28;20290;-86
2021/04/13 02:17:40;;;;;;;5.65;5.10;;;3.10;99.90;;;;;;5056522;28;20227;-86
2021/04/13 02:20:08;;;;;;;6.15;4.70;;;3.00;99.90;;;;;;5059782;28;20278;-86
2021/04/13 02:22:42;;;;;;;4.70;4.20;;;3.00;99.90;;;;;;5060024;28;20207;-86
2021/04/13 02:25:09;;;;;;;5.60;4.60;;;3.10;99.90;;;;;;5061136;28;20655;-87
2021/04/13 02:27:40;;;;;;;5.20;4.60;;;3.10;99.90;;;;;;5062650;28;20219;-87
2021/04/13 02:30:09;;;;;;;6.28;5.68;;;2.90;99.90;;;;;;5070338;28;20229;-86
2021/04/13 02:32:45;;;;;;;5.63;5.03;;;3.00;99.90;;;;;;5062233;28;20210;-86
2021/04/13 02:35:18;;;;;;;4.93;4.35;;;3.00;99.90;;;;;;5063198;28;20198;-86
2021/04/13 02:37:48;;;;;;;8.98;5.80;;;2.90;99.90;;;;;;5073943;28;20250;-86
2021/04/13 02:40:19;;;;;;;7.43;5.05;;;2.90;99.90;;;;;;5075205;28;20191;-87
2021/04/13 02:42:47;;;;;;;8.57;5.20;;;2.90;99.90;;;;;;5075977;28;20191;-87
2021/04/13 02:45:26;;;;;;;5.55;4.88;;;2.90;99.90;;;;;;5076317;28;20231;-87
2021/04/13 02:47:57;;;;;;;6.90;5.95;;;2.80;99.90;;;;;;5079882;28;20237;-86
2021/04/13 02:50:25;;;;;;;6.88;6.15;;;2.80;99.90;;;;;;5076995;28;20294;-86
2021/04/13 02:52:53;;;;;;;7.07;5.28;;;2.70;99.90;;;;;;5076504;28;20206;-86
2021/04/13 02:55:25;;;;;;;6.40;5.80;;;2.80;99.90;;;;;;5076580;28;20187;-86
2021/04/13 02:57:53;;;;;;;6.65;5.95;;;2.80;99.90;;;;;;5079971;28;20241;-86
2021/04/13 03:00:23;;;;;;;7.13;6.05;;;2.80;99.90;;;;;;5076196;28;20203;-87
2021/04/13 03:02:54;;;;;;;7.35;6.55;;;2.70;99.90;;;;;;5077193;28;20192;-86
2021/04/13 03:05:23;;;;;;;7.35;5.90;;;2.90;99.90;;;;;;5080381;28;20182;-86
2021/04/13 03:07:54;;;;;;;7.97;6.55;;;2.70;99.90;;;;;;5075735;28;20230;-87
2021/04/13 03:10:27;;;;;;;6.65;5.55;;;2.40;99.90;;;;;;5072078;28;20211;-86
2021/04/13 03:12:54;;;;;;;6.47;5.57;;;2.70;99.90;;;;;;5068372;28;20191;-86
2021/04/13 03:15:23;;;;;;;11.75;6.97;;;2.80;99.90;;;;;;5060696;28;20199;-87
2021/04/13 03:17:52;;;;;;;8.10;6.25;;;2.60;99.90;;;;;;5063241;28;20586;-85
2021/04/13 03:20:21;;;;;;;6.20;5.50;;;2.50;99.90;;;;;;5064155;28;20226;-86
2021/04/13 03:22:50;;;;;;;7.22;5.55;;;2.60;99.90;;;;;;5062554;28;20731;-87
2021/04/13 03:25:17;;;;;;;7.15;6.53;;;2.60;99.90;;;;;;5060948;28;20206;-87
2021/04/13 03:27:45;;;;;;;9.48;6.55;;;2.60;99.90;;;;;;5061811;28;20226;-87
2021/04/13 03:30:18;;;;;;;8.65;6.55;;;2.50;99.90;;;;;;5061304;28;20736;-87
2021/04/13 03:32:51;;;;;;;8.05;6.35;;;2.50;99.90;;;;;;5062562;28;20447;-86
2021/04/13 03:35:18;;;;;;;8.35;7.28;;;2.50;99.90;;;;;;5063153;28;20424;-87
2021/04/13 03:37:45;;;;;;;11.35;7.00;;;2.40;99.90;;;;;;5064582;28;20234;-86
2021/04/13 03:40:18;;;;;;;9.68;6.80;;;2.50;99.90;;;;;;5068619;28;20203;-87
2021/04/13 03:42:45;;;;;;;9.63;7.43;;;2.40;99.90;;;;;;5062569;28;20191;-87
2021/04/13 03:45:14;;;;;;;8.95;6.68;;;2.50;99.90;;;;;;5062289;28;20207;-86
2021/04/13 03:47:44;;;;;;;10.85;7.60;;;2.70;99.90;;;;;;5061504;28;20215;-86
2021/04/13 03:50:16;;;;;;;11.40;8.48;;;2.50;99.90;;;;;;5062763;28;20215;-86
2021/04/13 03:52:42;;;;;;;9.80;7.20;;;2.50;99.90;;;;;;5062535;28;20187;-86
2021/04/13 03:55:16;;;;;;;9.75;7.00;;;2.70;99.90;;;;;;5062855;28;20225;-86
2021/04/13 03:57:43;;;;;;;10.93;7.43;;;2.50;99.90;;;;;;5062301;28;20219;-87
2021/04/13 04:00:14;;;;;;;8.38;7.00;;;2.50;99.90;;;;;;5061271;28;20203;-87
2021/04/13 04:02:40;;;;;;;11.57;7.50;;;2.50;99.90;;;;;;5061682;28;20187;-86
2021/04/13 04:05:11;;;;;;;9.50;8.60;;;2.40;99.90;;;;;;5060136;28;20230;-85
2021/04/13 04:07:41;;;;;;;11.13;6.80;;;2.40;99.90;;;;;;5058346;28;20223;-85
2021/04/13 04:10:46;;;;;;;8.35;6.63;;;2.40;99.90;;;;;;5058736;28;20440;-86
2021/04/13 04:13:22;;;;;;;10.32;7.40;;;2.40;99.90;;;;;;5057067;28;20944;-86
2021/04/13 04:15:51;;;;;;;9.85;7.40;;;2.50;99.90;;;;;;5056965;28;20436;-86
2021/04/13 04:18:26;;;;;;;11.38;7.55;;;2.30;99.90;;;;;;5059886;28;20452;-86
2021/04/13 04:20:52;;;;;;;8.60;6.70;;;2.30;99.90;;;;;;5060947;28;20206;-86
2021/04/13 04:23:26;;;;;;;9.10;8.20;;;2.30;99.90;;;;;;5060622;28;20670;-86
2021/04/13 04:25:56;;;;;;;7.72;5.88;;;2.50;99.90;;;;;;5058562;28;20595;-86
2021/04/13 04:28:28;;;;;;;10.00;7.20;;;2.30;99.90;;;;;;5059289;28;20187;-86
2021/04/13 04:30:54;;;;;;;13.02;8.90;;;2.30;99.90;;;;;;5059274;28;20211;-86
2021/04/13 04:33:35;;;;;;;7.75;6.95;;;2.40;99.90;;;;;;5058741;28;20203;-87
2021/04/13 04:36:01;;;;;;;8.68;7.82;;;2.40;99.90;;;;;;5059143;28;20183;-87
2021/04/13 04:38:30;;;;;;;16.10;7.30;;;2.20;99.90;;;;;;5058461;28;20566;-87
2021/04/13 04:41:02;;;;;;;16.42;7.85;;;2.50;99.90;;;;;;5057923;28;20203;-86
2021/04/13 04:43:54;;;;;;;11.13;7.68;;;2.40;99.90;;;;;;5059200;28;20183;-86
2021/04/13 04:46:35;;;;;;;9.82;8.60;;;2.40;99.90;;;;;;5058442;28;20245;-87
2021/04/13 04:49:04;;;;;;;12.38;9.02;;;2.40;99.90;;;;;;5058642;28;20179;-87
2021/04/13 04:51:30;;;;;;;10.95;9.32;;;2.40;99.90;;;;;;5061433;28;20552;-86
2021/04/13 04:53:57;;;;;;;13.65;8.35;;;2.40;99.90;;;;;;5064260;28;20199;-86
2021/04/13 04:56:23;;;;;;;11.50;8.80;;;2.20;99.90;;;;;;5058870;28;20227;-85
2021/04/13 04:58:50;;;;;;;11.52;9.02;;;2.40;99.90;;;;;;5057756;28;20218;-85
2021/04/13 05:01:16;;;;;;;10.70;9.45;;;2.40;99.90;;;;;;5059000;28;20205;-86
2021/04/13 05:03:42;;;;;;;12.70;10.02;;;2.40;99.90;;;;;;5058431;28;20194;-87
2021/04/13 05:06:09;;;;;;;12.90;10.00;;;2.30;99.90;;;;;;5057383;28;20544;-87
2021/04/13 05:08:35;;;;;;;12.70;8.95;;;2.30;99.90;;;;;;5057572;28;20199;-87
2021/04/13 05:11:02;;;;;;;13.55;10.32;;;2.70;99.90;;;;;;5069896;28;20202;-87
2021/04/13 05:13:28;;;;;;;14.27;11.43;;;2.40;99.90;;;;;;5064058;28;20203;-86
2021/04/13 05:15:55;;;;;;;13.52;9.35;;;2.70;99.90;;;;;;5057409;28;20207;-85
2021/04/13 05:18:21;;;;;;;13.98;11.35;;;2.60;99.90;;;;;;5057514;28;20219;-86
2021/04/13 05:20:47;;;;;;;18.48;11.35;;;2.50;99.90;;;;;;5057461;28;20199;-85
2021/04/13 05:23:14;;;;;;;15.88;11.68;;;2.40;99.90;;;;;;5056845;28;20203;-85
2021/04/13 05:25:41;;;;;;;12.88;10.00;;;2.60;99.90;;;;;;5056963;28;20214;-86
2021/04/13 05:28:07;;;;;;;20.10;11.32;;;2.60;99.90;;;;;;5056575;28;20218;-86
2021/04/13 05:30:33;;;;;;;16.42;11.50;;;2.60;99.90;;;;;;5058126;28;20198;-86
2021/04/13 05:33:01;;;;;;;15.60;10.60;;;2.70;99.90;;;;;;5057531;28;20213;-86
2021/04/13 05:35:28;;;;;;;15.18;11.60;;;2.70;99.90;;;;;;5073576;28;20209;-86
2021/04/13 05:37:56;;;;;;;12.90;10.35;;;2.90;99.90;;;;;;5077592;28;20299;-86
2021/04/13 05:40:25;;;;;;;14.93;10.75;;;2.90;99.90;;;;;;5064390;28;20195;-85
2021/04/13 05:42:54;;;;;;;14.90;10.35;;;2.90;99.90;;;;;;5056764;28;20198;-86
2021/04/13 05:45:21;;;;;;;17.63;10.77;;;2.90;99.90;;;;;;5061905;28;20194;-85
2021/04/13 05:47:47;;;;;;;16.48;10.82;;;3.40;99.90;;;;;;5065379;28;20231;-86
2021/04/13 05:50:21;;;;;;;14.20;8.82;;;3.00;99.90;;;;;;5062440;28;20221;-86
2021/04/13 05:52:47;;;;;;;14.68;10.75;;;3.30;99.90;;;;;;5062016;28;20591;-86
2021/04/13 05:55:14;;;;;;;14.05;9.40;;;3.10;99.90;;;;;;5071725;28;20210;-85
2021/04/13 05:57:40;;;;;;;14.90;10.60;;;3.30;99.90;;;;;;5062273;28;20571;-85
2021/04/13 06:00:09;;;;;;;15.13;9.50;;;3.40;99.90;;;;;;5062774;28;20203;-85
2021/04/13 06:02:36;;;;;;;11.20;9.10;;;3.30;99.90;;;;;;5063060;28;20203;-86
2021/04/13 06:05:03;;;;;;;14.90;10.07;;;3.40;99.90;;;;;;5062752;28;20264;-86
2021/04/13 06:07:30;;;;;;;12.45;8.68;;;3.30;99.90;;;;;;5062396;28;20250;-86
2021/04/13 06:09:56;;;;;;;11.50;9.07;;;3.40;99.90;;;;;;5062468;28;20589;-86
2021/04/13 06:12:23;;;;;;;10.60;8.50;;;3.50;99.90;;;;;;5063308;28;20203;-86
2021/04/13 06:14:51;;;;;;;12.55;10.02;;;3.50;99.90;;;;;;5065832;28;20194;-86
2021/04/13 06:17:18;;;;;;;12.75;9.05;;;3.60;99.90;;;;;;5067708;22;20231;-80
2021/04/13 06:19:44;;;;;;;11.55;9.52;;;3.60;99.90;;;;;;5041710;28;20312;-80
2021/04/13 06:22:10;;;;;;;12.30;9.55;;;3.60;99.90;;;;;;5042138;28;20306;-80
2021/04/13 06:24:37;;;;;;;14.52;9.07;;;3.70;99.90;;;;;;5042342;28;20218;-81
2021/04/13 06:27:05;;;;;;;12.45;8.20;;;3.70;99.90;;;;;;5042374;28;20219;-80
2021/04/13 06:29:32;;;;;;;8.38;7.22;;;3.80;99.90;;;;;;5041617;28;20551;-80
2021/04/13 06:31:58;;;;;;;12.80;8.00;;;3.90;99.90;;;;;;5041861;28;20310;-81
2021/04/13 06:34:24;;;;;;;11.65;8.25;;;4.00;99.90;;;;;;5047485;28;20208;-78
2021/04/13 06:36:51;;;;;;;11.48;6.55;;;4.10;99.90;;;;;;5051852;28;20228;-79
2021/04/13 06:39:17;;;;;;;9.45;7.82;;;4.20;99.90;;;;;;5043571;28;20361;-80
2021/04/13 06:42:13;;;;;;;9.82;6.35;;;4.20;99.90;;;;;;5048778;28;20211;-78
2021/04/13 06:44:56;;;;;;;7.90;6.45;;;4.10;99.90;;;;;;5046269;28;20199;-80
2021/04/13 06:47:34;;;;;;;11.70;8.88;;;4.20;99.90;;;;;;5042001;28;20223;-79
2021/04/13 06:50:13;;;;;;;13.25;7.38;;;4.30;99.90;;;;;;5041853;28;20195;-80
2021/04/13 06:52:50;;;;;;;8.98;7.50;;;4.40;99.90;;;;;;5041960;28;20227;-80
2021/04/13 06:55:28;;;;;;;8.63;6.07;;;4.50;99.90;;;;;;5042067;28;20634;-80
2021/04/13 06:58:09;;;;;;;9.40;6.70;;;4.80;99.90;;;;;;5040946;28;20227;-81
2021/04/13 07:00:47;;;;;;;9.75;6.43;;;4.60;99.90;;;;;;5041397;28;20192;-79
2021/04/13 07:03:23;;;;;;;12.02;6.10;;;4.70;99.90;;;;;;5039929;28;20241;-79
2021/04/13 07:05:55;;;;;;;8.75;6.30;;;4.70;99.90;;;;;;5043121;28;20194;-80
2021/04/13 07:08:27;;;;;;;8.48;6.40;;;4.80;99.90;;;;;;5040202;28;20231;-79
2021/04/13 07:11:02;;;;;;;13.98;7.13;;;4.80;99.90;;;;;;5044252;28;20204;-79
2021/04/13 07:13:38;;;;;;;10.10;6.43;;;4.80;99.90;;;;;;5040713;28;20184;-80
2021/04/13 07:16:12;;;;;;;8.20;5.40;;;5.00;99.90;;;;;;5051162;28;20188;-80
2021/04/13 07:18:43;;;;;;;7.18;6.07;;;4.90;99.90;;;;;;5050448;28;20251;-81
2021/04/13 07:21:15;;;;;;;9.38;6.35;;;4.90;99.90;;;;;;5043709;28;20188;-82
2021/04/13 07:23:44;;;;;;;8.93;5.60;;;5.20;99.90;;;;;;5042525;28;20288;-81
2021/04/13 07:26:15;;;;;;;7.47;5.72;;;5.20;99.90;;;;;;5045547;28;20199;-79
2021/04/13 07:28:52;;;;;;;6.78;5.15;;;5.20;99.90;;;;;;5043023;28;20181;-80
2021/04/13 07:31:23;;;;;;;6.07;5.47;;;5.40;99.90;;;;;;5041485;28;20572;-82
2021/04/13 07:33:49;;;;;;;9.23;5.40;;;5.40;99.90;;;;;;5041459;28;20257;-82
2021/04/13 07:36:22;;;;;;;6.35;4.70;;;5.80;99.90;;;;;;5041140;28;20242;-81
2021/04/13 07:38:51;;;;;;;10.35;5.80;;;5.60;99.90;;;;;;5042866;28;20203;-81
2021/04/13 07:41:23;;;;;;;9.25;5.45;;;5.40;99.90;;;;;;5043666;28;20211;-82
2021/04/13 07:43:56;;;;;;;8.13;5.13;;;5.50;99.90;;;;;;5043424;28;20647;-81
2021/04/13 07:46:44;;;;;;;8.05;5.88;;;5.70;99.90;;;;;;5044880;28;20191;-79
2021/04/13 07:49:14;;;;;;;10.85;5.32;;;5.60;99.90;;;;;;5054494;28;20234;-80
2021/04/13 07:51:49;;;;;;;5.05;4.50;;;5.80;99.90;;;;;;5044561;28;20188;-82
2021/04/13 07:54:31;;;;;;;7.13;4.97;;;5.80;99.90;;;;;;5040250;28;20195;-81
2021/04/13 07:57:01;;;;;;;5.28;4.45;;;5.90;99.90;;;;;;5041910;28;20227;-81
2021/04/13 07:59:37;;;;;;;9.68;5.20;;;5.90;99.90;;;;;;5040877;28;20212;-80
2021/04/13 08:02:03;;;;;;;7.57;4.22;;;5.90;99.90;;;;;;5041918;28;20255;-81
2021/04/13 08:04:31;;;;;;;5.88;4.55;;;6.20;99.90;;;;;;5041369;28;20199;-79
2021/04/13 08:07:01;;;;;;;8.10;4.63;;;6.30;99.90;;;;;;5042498;28;20227;-80
2021/04/13 08:09:37;;;;;;;7.35;5.07;;;6.40;99.90;;;;;;5041181;28;20593;-80
2021/04/13 08:12:13;;;;;;;9.73;5.50;;;6.20;99.90;;;;;;5040921;28;20184;-81
2021/04/13 08:14:43;;;;;;;8.68;5.70;;;6.50;99.90;;;;;;5041046;28;20187;-81
2021/04/13 08:17:15;;;;;;;8.43;5.35;;;6.40;99.90;;;;;;5041772;28;20737;-80
2021/04/13 08:19:42;;;;;;;5.57;5.07;;;6.50;99.90;;;;;;5041941;28;20180;-81
2021/04/13 08:22:14;;;;;;;7.47;5.15;;;6.50;99.90;;;;;;5042169;28;20330;-81
2021/04/13 08:24:42;;;;;;;5.63;4.60;;;6.70;99.90;;;;;;5041235;28;20188;-82
2021/04/13 08:27:23;;;;;;;6.70;4.07;;;6.60;99.90;;;;;;5041963;28;20234;-81
2021/04/13 08:29:59;;;;;;;7.47;4.25;;;6.70;99.90;;;;;;5043479;28;20188;-81
2021/04/13 08:32:53;;;;;;;8.30;4.47;;;6.60;99.90;;;;;;5041628;28;20192;-81
2021/04/13 08:35:31;;;;;;;11.88;4.57;;;6.50;99.90;;;;;;5041534;28;20192;-81
2021/04/13 08:38:18;;;;;;;6.90;4.07;;;6.40;99.90;;;;;;5041686;28;20345;-81
2021/04/13 08:41:01;;;;;;;4.75;4.25;;;6.60;99.90;;;;;;5043316;28;20188;-81
2021/04/13 08:43:37;;;;;;;3.97;3.60;;;6.60;99.90;;;;;;5041905;28;20249;-80
2021/04/13 08:46:22;;;;;;;6.65;4.32;;;6.40;99.90;;;;;;5041606;28;20242;-81
2021/04/13 08:48:53;;;;;;;6.63;4.00;;;6.30;99.90;;;;;;5041944;28;20245;-81
2021/04/13 08:51:33;;;;;;;9.00;5.45;;;6.50;99.90;;;;;;5042588;28;20214;-81
2021/04/13 08:54:19;;;;;;;5.88;4.10;;;6.40;99.90;;;;;;5042800;28;20210;-80
2021/04/13 08:56:55;;;;;;;3.42;3.00;;;6.50;99.90;;;;;;5043526;28;20223;-80
2021/04/13 08:59:39;;;;;;;5.22;3.47;;;6.60;99.90;;;;;;5043108;28;20234;-80
2021/04/13 09:02:25;;;;;;;5.40;3.40;;;6.70;99.90;;;;;;5049000;28;20191;-80
2021/04/13 09:05:02;;;;;;;3.58;2.97;;;6.80;99.90;;;;;;5053099;28;20195;-80
2021/04/13 09:07:37;;;;;;;5.43;4.25;;;6.90;99.90;;;;;;5050444;28;20234;-80
2021/04/13 09:10:16;;;;;;;8.95;4.20;;;6.80;99.90;;;;;;5041334;28;20537;-80
2021/04/13 09:12:49;;;;;;;5.43;3.05;;;6.90;99.90;;;;;;5039055;28;20187;-80
2021/04/13 09:15:24;;;;;;;11.13;4.30;;;7.10;99.90;;;;;;5040700;28;20188;-81
2021/04/13 09:18:00;;;;;;;6.47;4.25;;;7.00;99.90;;;;;;5039490;28;20227;-81
2021/04/13 09:20:37;;;;;;;8.57;4.40;;;7.20;99.90;;;;;;5043924;28;20203;-81
2021/04/13 09:23:10;;;;;;;7.38;3.65;;;7.30;99.90;;;;;;5040951;28;20609;-81
2021/04/13 09:25:42;;;;;;;4.30;3.60;;;7.50;99.90;;;;;;5040242;28;20187;-81
2021/04/13 09:28:11;;;;;;;3.08;2.80;;;7.50;99.90;;;;;;5040070;28;20219;-80
2021/04/13 09:30:40;;;;;;;6.95;3.20;;;7.00;99.90;;;;;;5040923;28;20678;-82
2021/04/13 09:33:12;;;;;;;4.63;3.45;;;7.20;99.90;;;;;;5040710;28;20277;-82
2021/04/13 09:35:51;;;;;;;3.58;3.20;;;7.20;99.90;;;;;;5043183;28;20192;-81
2021/04/13 09:38:34;;;;;;;4.13;3.08;;;7.50;99.90;;;;;;5042817;28;20238;-80
2021/04/13 09:41:09;;;;;;;4.07;3.10;;;7.70;99.90;;;;;;5046693;28;20188;-82
2021/04/13 09:43:51;;;;;;;5.45;2.70;;;7.60;99.90;;;;;;5044037;28;20187;-80
2021/04/13 09:46:34;;;;;;;3.72;3.42;;;7.60;99.90;;;;;;5043423;28;20195;-81
2021/04/13 09:49:25;;;;;;;3.80;2.83;;;7.70;99.90;;;;;;5042050;28;20195;-82
2021/04/13 09:52:07;;;;;;;5.18;3.10;;;7.80;99.90;;;;;;5040750;28;20709;-79
2021/04/13 09:54:37;;;;;;;8.15;3.15;;;7.80;99.90;;;;;;5040479;28;20191;-82
2021/04/13 09:57:25;;;;;;;6.20;2.58;;;7.60;99.90;;;;;;5040440;28;20231;-80
2021/04/13 10:00:33;;;;;;;4.50;2.65;;;7.80;99.90;;;;;;5044959;28;20246;-79
2021/04/13 10:03:33;;;;;;;4.80;3.47;;;7.70;99.90;;;;;;5046684;28;20184;-83
2021/04/13 10:06:01;;;;;;;4.70;3.40;;;7.30;99.90;;;;;;5042507;28;20199;-80
2021/04/13 10:08:32;;;;;;;3.08;2.80;;;7.30;99.90;;;;;;5041267;28;20228;-81
2021/04/13 10:11:23;;;;;;;8.25;2.90;;;7.40;99.90;;;;;;5043490;28;20188;-81
2021/04/13 10:14:26;;;;;;;6.38;3.38;;;7.70;99.90;;;;;;5040984;28;20189;-81
2021/04/13 10:17:13;;;;;;;8.43;2.75;;;7.80;99.90;;;;;;5040903;28;20231;-81
2021/04/13 10:19:48;;;;;;;5.38;3.25;;;7.80;99.90;;;;;;5041035;28;20208;-81
2021/04/13 10:22:40;;;;;;;5.90;3.92;;;7.90;99.90;;;;;;5041217;28;20253;-81
2021/04/13 10:25:29;;;;;;;5.13;3.22;;;7.70;99.90;;;;;;5040515;28;20283;-81
2021/04/13 10:28:44;;;;;;;5.63;2.90;;;7.80;99.90;;;;;;4997150;28;20231;-81
2021/04/13 10:31:36;;;;;;;4.60;3.17;;;7.70;99.90;;;;;;5040868;28;20192;-81
2021/04/13 10:34:53;;;;;;;6.45;3.10;;;7.60;99.90;;;;;;5040699;28;20188;-81
2021/04/13 10:37:55;;;;;;;7.07;3.83;;;7.20;99.90;;;;;;5040646;28;20255;-80
2021/04/13 10:40:58;;;;;;;4.60;4.05;;;7.30;99.90;;;;;;5044275;28;20195;-81
2021/04/13 10:43:43;;;;;;;4.38;3.05;;;7.40;99.90;;;;;;5043731;28;20253;-81
2021/04/13 10:46:24;;;;;;;5.75;2.70;;;7.50;99.90;;;;;;5042808;28;20188;-81
2021/04/13 10:49:20;;;;;;;8.10;3.25;;;7.50;99.90;;;;;;5045047;28;20207;-80
2021/04/13 10:52:19;;;;;;;7.53;3.00;;;7.50;99.90;;;;;;5044039;28;20184;-81
2021/04/13 10:55:17;;;;;;;3.08;2.78;;;7.80;99.90;;;;;;5043777;28;20204;-80
2021/04/13 10:58:24;;;;;;;2.80;2.40;;;7.80;99.90;;;;;;5044219;28;20228;-82
2021/04/13 11:01:29;;;;;;;4.82;3.10;;;7.90;99.90;;;;;;5045219;28;20188;-80
2021/04/13 11:04:58;;;;;;;2.85;2.38;;;7.90;99.90;;;;;;5020521;28;20199;-80
2021/04/13 11:08:04;;;;;;;3.50;2.80;;;7.80;99.90;;;;;;5048171;28;20257;-80
2021/04/13 11:10:56;;;;;;;2.35;1.92;;;8.00;99.90;;;;;;5048774;28;20203;-80
2021/04/13 11:13:44;;;;;;;2.72;2.53;;;8.50;99.90;;;;;;5049610;28;20191;-80
2021/04/13 11:16:45;;;;;;;8.70;2.40;;;8.50;99.90;;;;;;5049964;28;20188;-81
2021/04/13 11:19:24;;;;;;;5.45;2.58;;;8.50;99.90;;;;;;5016081;28;20236;-82
2021/04/13 11:22:23;;;;;;;3.05;1.83;;;8.30;99.90;;;;;;5048667;28;20188;-80
2021/04/13 11:25:15;;;;;;;3.05;2.85;;;8.40;99.90;;;;;;5050812;28;20215;-81
2021/04/13 11:28:29;;;;;;;5.22;3.15;;;8.10;99.90;;;;;;5050059;28;20235;-82
2021/04/13 11:31:38;;;;;;;4.32;2.20;;;8.00;99.90;;;;;;5052134;28;20184;-80
2021/04/13 11:34:16;;;;;;;4.70;2.80;;;7.90;99.90;;;;;;5052879;28;20188;-80
2021/04/13 11:37:01;;;;;;;3.45;2.60;;;8.10;99.90;;;;;;5050712;28;20235;-82
2021/04/13 11:39:37;;;;;;;6.60;2.60;;;8.10;99.90;;;;;;5045929;28;20208;-82
2021/04/13 11:42:21;;;;;;;6.78;2.88;;;7.90;99.90;;;;;;5048353;28;20214;-80
2021/04/13 11:45:00;;;;;;;3.55;2.25;;;8.20;99.90;;;;;;5048416;28;20188;-82
2021/04/13 11:47:34;;;;;;;8.27;2.30;;;8.00;99.90;;;;;;5045995;28;20273;-81
2021/04/13 11:50:08;;;;;;;5.37;2.53;;;8.10;99.90;;;;;;5048036;28;20187;-82
2021/04/13 11:52:44;;;;;;;5.18;3.10;;;8.10;99.90;;;;;;5046612;28;20496;-83
2021/04/13 11:55:41;;;;;;;12.77;3.05;;;8.00;99.90;;;;;;5046728;28;20191;-82
2021/04/13 11:58:14;;;;;;;3.55;3.25;;;8.20;99.90;;;;;;5048845;28;20224;-80
2021/04/13 12:00:41;;;;;;;7.82;2.80;;;8.00;99.90;;;;;;5045952;28;20184;-81
2021/04/13 12:03:30;;;;;;;5.63;4.20;;;7.90;99.90;;;;;;5047127;28;20212;-79
2021/04/13 12:05:57;;;;;;;5.13;2.70;;;7.80;99.90;;;;;;5045476;28;20622;-81
2021/04/13 12:08:40;;;;;;;4.50;2.20;;;7.80;99.90;;;;;;5045882;28;20231;-81
2021/04/13 12:11:08;;;;;;;8.88;3.35;;;8.10;99.90;;;;;;5045474;28;20198;-80
2021/04/13 12:13:37;;;;;;;4.70;2.53;;;8.20;99.90;;;;;;5048108;28;20211;-80
2021/04/13 12:16:04;;;;;;;5.57;2.45;;;8.20;99.90;;;;;;5048049;28;20204;-80
2021/04/13 12:19:09;;;;;;;5.32;1.92;;;8.40;99.90;;;;;;5089189;22;20230;-84
2021/04/13 12:21:55;;;;;;;5.55;2.45;;;8.40;99.90;;;;;;5073603;28;20213;-84
2021/04/13 12:24:51;;;;;;;6.97;2.50;;;8.60;99.90;;;;;;5073116;28;20646;-85
2021/04/13 12:27:48;;;;;;;5.77;2.33;;;8.70;99.90;;;;;;5072507;28;20227;-85
2021/04/13 12:30:35;;;;;;;6.25;2.80;;;8.80;99.90;;;;;;5071372;28;20429;-84
2021/04/13 12:33:05;;;;;;;5.90;2.40;;;8.40;99.90;;;;;;5074134;28;20214;-84
2021/04/13 12:35:54;;;;;;;2.65;1.83;;;8.80;99.90;;;;;;5072795;28;20198;-84
2021/04/13 12:38:49;;;;;;;3.57;2.20;;;8.50;99.90;;;;;;5067041;28;20292;-84
2021/04/13 12:41:19;;;;;;;4.07;2.03;;;8.90;99.90;;;;;;5074216;28;20450;-84
2021/04/13 12:43:48;;;;;;;6.65;2.83;;;8.90;99.90;;;;;;5069332;28;20202;-85
2021/04/13 12:46:27;;;;;;;18.60;9.50;;;9.00;99.90;;;;;;5068561;28;20203;-84
2021/04/13 12:48:55;;;;;;;10.47;5.97;;;8.90;99.90;;;;;;5067020;28;20492;-83
2021/04/13 12:51:33;;;;;;;8.57;5.87;;;8.80;99.90;;;;;;5066792;28;20449;-83
2021/04/13 12:54:17;;;;;;;9.27;6.60;;;8.80;99.90;;;;;;5068597;28;20515;-84
2021/04/13 12:56:53;;;;;;;3.10;2.80;;;8.60;99.90;;;;;;5069974;28;20426;-85
2021/04/13 12:59:23;;;;;;;8.23;2.25;;;8.70;99.90;;;;;;5071525;28;20449;-84
2021/04/13 13:01:50;;;;;;;9.53;3.00;;;8.50;99.90;;;;;;5070603;28;20210;-84
2021/04/13 13:04:19;;;;;;;7.00;2.80;;;8.80;99.90;;;;;;5071618;28;20453;-84
2021/04/13 13:06:53;;;;;;;3.50;1.98;;;8.90;99.90;;;;;;5072679;28;20438;-83
2021/04/13 13:09:25;;;;;;;2.75;2.38;;;8.80;99.90;;;;;;5070088;28;20246;-84
2021/04/13 13:12:01;;;;;;;4.63;2.53;;;8.90;99.90;;;;;;5069434;28;20202;-85
2021/04/13 13:14:30;;;;;;;9.33;3.67;;;9.00;99.90;;;;;;5069173;28;20445;-84
2021/04/13 13:16:58;;;;;;;3.03;2.77;;;9.00;99.90;;;;;;5066585;28;20507;-83
2021/04/13 13:19:31;;;;;;;17.37;9.87;;;9.30;99.90;;;;;;5067733;28;20469;-83
2021/04/13 13:22:01;;;;;;;4.10;1.83;;;9.50;99.90;;;;;;5066548;28;20422;-83
2021/04/13 13:24:31;;;;;;;3.00;2.43;;;9.60;99.90;;;;;;5067118;28;20405;-84
2021/04/13 13:27:10;;;;;;;2.97;2.57;;;9.70;99.90;;;;;;5075186;28;20492;-84
2021/04/13 13:29:37;;;;;;;5.20;2.77;;;9.50;99.90;;;;;;5076562;28;20435;-83
2021/04/13 13:32:03;;;;;;;4.60;2.47;;;9.50;99.90;;;;;;5075923;28;20445;-83
2021/04/13 13:34:30;;;;;;;3.47;2.00;;;9.70;99.90;;;;;;5074277;28;20461;-83